sensor_id;sensor_type;location;lat;lon;timestamp;temperature;humidity
41220;DHT22;26951;47.338;9.196;2023-04-29T00:02:33;11.90;88.60
41220;DHT22;26951;47.338;9.196;2023-04-29T00:05:17;11.90;89.20
41220;DHT22;26951;47.338;9.196;2023-04-29T00:08:01;11.90;89.40
41220;DHT22;26951;47.338;9.196;2023-04-29T00:10:46;11.90;89.00
41220;DHT22;26951;47.338;9.196;2023-04-29T00:13:31;11.90;89.10
41220;DHT22;26951;47.338;9.196;2023-04-29T00:16:15;11.90;90.00
41220;DHT22;26951;47.338;9.196;2023-04-29T00:18:59;11.90;90.10
41220;DHT22;26951;47.338;9.196;2023-04-29T00:21:43;11.90;89.80
41220;DHT22;26951;47.338;9.196;2023-04-29T00:24:27;11.90;89.30
41220;DHT22;26951;47.338;9.196;2023-04-29T00:27:11;11.90;89.10
41220;DHT22;26951;47.338;9.196;2023-04-29T00:29:55;11.90;89.10
41220;DHT22;26951;47.338;9.196;2023-04-29T00:32:40;11.90;88.90
41220;DHT22;26951;47.338;9.196;2023-04-29T00:35:24;11.90;88.50
41220;DHT22;26951;47.338;9.196;2023-04-29T00:38:08;11.90;88.10
41220;DHT22;26951;47.338;9.196;2023-04-29T00:40:52;11.90;87.80
41220;DHT22;26951;47.338;9.196;2023-04-29T00:43:36;11.90;87.80
41220;DHT22;26951;47.338;9.196;2023-04-29T00:46:20;11.80;87.60
41220;DHT22;26951;47.338;9.196;2023-04-29T00:49:04;11.80;87.70
41220;DHT22;26951;47.338;9.196;2023-04-29T00:51:49;11.80;87.80
41220;DHT22;26951;47.338;9.196;2023-04-29T00:54:34;11.80;87.20
41220;DHT22;26951;47.338;9.196;2023-04-29T00:57:19;11.80;87.40
41220;DHT22;26951;47.338;9.196;2023-04-29T01:00:04;11.80;88.40
41220;DHT22;26951;47.338;9.196;2023-04-29T01:02:56;11.80;88.40
41220;DHT22;26951;47.338;9.196;2023-04-29T01:05:40;11.80;88.70
41220;DHT22;26951;47.338;9.196;2023-04-29T01:14:38;11.80;90.40
41220;DHT22;26951;47.338;9.196;2023-04-29T01:17:24;11.80;90.50
41220;DHT22;26951;47.338;9.196;2023-04-29T01:20:10;11.80;90.50
41220;DHT22;26951;47.338;9.196;2023-04-29T01:22:55;11.80;90.80
41220;DHT22;26951;47.338;9.196;2023-04-29T01:25:39;11.80;90.90
41220;DHT22;26951;47.338;9.196;2023-04-29T01:31:38;11.80;90.70
41220;DHT22;26951;47.338;9.196;2023-04-29T01:34:30;11.80;90.60
41220;DHT22;26951;47.338;9.196;2023-04-29T01:37:32;11.80;90.50
41220;DHT22;26951;47.338;9.196;2023-04-29T01:40:48;11.80;90.40
41220;DHT22;26951;47.338;9.196;2023-04-29T01:43:39;11.80;90.20
41220;DHT22;26951;47.338;9.196;2023-04-29T01:46:24;11.80;90.30
41220;DHT22;26951;47.338;9.196;2023-04-29T01:49:09;11.80;90.20
41220;DHT22;26951;47.338;9.196;2023-04-29T01:51:53;11.80;90.30
41220;DHT22;26951;47.338;9.196;2023-04-29T01:54:38;11.80;90.00
41220;DHT22;26951;47.338;9.196;2023-04-29T01:57:22;11.80;89.80
41220;DHT22;26951;47.338;9.196;2023-04-29T02:00:07;11.80;89.70
41220;DHT22;26951;47.338;9.196;2023-04-29T02:02:52;11.80;89.70
41220;DHT22;26951;47.338;9.196;2023-04-29T02:05:37;11.80;89.80
41220;DHT22;26951;47.338;9.196;2023-04-29T02:08:22;11.80;89.90
41220;DHT22;26951;47.338;9.196;2023-04-29T02:11:06;11.80;89.90
41220;DHT22;26951;47.338;9.196;2023-04-29T02:13:50;11.80;89.60
41220;DHT22;26951;47.338;9.196;2023-04-29T02:16:34;11.80;89.10
41220;DHT22;26951;47.338;9.196;2023-04-29T02:19:18;11.80;89.10
41220;DHT22;26951;47.338;9.196;2023-04-29T02:22:02;11.80;89.30
41220;DHT22;26951;47.338;9.196;2023-04-29T02:24:47;11.80;88.70
41220;DHT22;26951;47.338;9.196;2023-04-29T02:27:31;11.80;88.40
41220;DHT22;26951;47.338;9.196;2023-04-29T02:30:15;11.70;87.60
41220;DHT22;26951;47.338;9.196;2023-04-29T02:33:00;11.70;87.40
41220;DHT22;26951;47.338;9.196;2023-04-29T02:35:44;11.80;87.50
41220;DHT22;26951;47.338;9.196;2023-04-29T02:38:28;11.80;87.30
41220;DHT22;26951;47.338;9.196;2023-04-29T02:41:16;11.80;88.00
41220;DHT22;26951;47.338;9.196;2023-04-29T02:44:00;11.70;88.30
41220;DHT22;26951;47.338;9.196;2023-04-29T02:46:45;11.70;88.00
41220;DHT22;26951;47.338;9.196;2023-04-29T02:49:29;11.70;88.10
41220;DHT22;26951;47.338;9.196;2023-04-29T02:52:13;11.70;88.20
41220;DHT22;26951;47.338;9.196;2023-04-29T02:54:57;11.70;87.90
41220;DHT22;26951;47.338;9.196;2023-04-29T02:57:41;11.70;87.50
41220;DHT22;26951;47.338;9.196;2023-04-29T03:00:25;11.60;87.60
41220;DHT22;26951;47.338;9.196;2023-04-29T03:03:10;11.60;88.20
41220;DHT22;26951;47.338;9.196;2023-04-29T03:05:54;11.60;88.50
41220;DHT22;26951;47.338;9.196;2023-04-29T03:08:38;11.60;88.80
41220;DHT22;26951;47.338;9.196;2023-04-29T03:11:22;11.60;88.80
41220;DHT22;26951;47.338;9.196;2023-04-29T03:14:07;11.70;88.70
41220;DHT22;26951;47.338;9.196;2023-04-29T03:16:51;11.70;88.20
41220;DHT22;26951;47.338;9.196;2023-04-29T03:19:35;11.60;87.70
41220;DHT22;26951;47.338;9.196;2023-04-29T03:22:19;11.60;87.30
41220;DHT22;26951;47.338;9.196;2023-04-29T03:25:04;11.70;87.60
41220;DHT22;26951;47.338;9.196;2023-04-29T03:27:48;11.60;87.70
41220;DHT22;26951;47.338;9.196;2023-04-29T03:30:33;11.60;87.90
41220;DHT22;26951;47.338;9.196;2023-04-29T03:33:17;11.70;87.80
41220;DHT22;26951;47.338;9.196;2023-04-29T03:36:01;11.60;88.10
41220;DHT22;26951;47.338;9.196;2023-04-29T03:38:45;11.60;87.80
41220;DHT22;26951;47.338;9.196;2023-04-29T03:41:29;11.60;87.20
41220;DHT22;26951;47.338;9.196;2023-04-29T03:44:14;11.60;86.80
41220;DHT22;26951;47.338;9.196;2023-04-29T03:46:58;11.60;86.60
41220;DHT22;26951;47.338;9.196;2023-04-29T03:49:42;11.60;86.30
41220;DHT22;26951;47.338;9.196;2023-04-29T03:52:26;11.60;85.70
41220;DHT22;26951;47.338;9.196;2023-04-29T03:55:11;11.60;85.50
41220;DHT22;26951;47.338;9.196;2023-04-29T03:57:55;11.60;85.10
41220;DHT22;26951;47.338;9.196;2023-04-29T04:00:39;11.50;84.50
41220;DHT22;26951;47.338;9.196;2023-04-29T04:03:24;11.50;84.40
41220;DHT22;26951;47.338;9.196;2023-04-29T04:06:08;11.50;84.80
41220;DHT22;26951;47.338;9.196;2023-04-29T04:08:52;11.40;85.30
41220;DHT22;26951;47.338;9.196;2023-04-29T04:11:36;11.40;84.80
41220;DHT22;26951;47.338;9.196;2023-04-29T04:14:21;11.40;84.40
41220;DHT22;26951;47.338;9.196;2023-04-29T04:17:04;11.40;83.90
41220;DHT22;26951;47.338;9.196;2023-04-29T04:19:49;11.30;83.60
41220;DHT22;26951;47.338;9.196;2023-04-29T04:22:33;11.30;84.30
41220;DHT22;26951;47.338;9.196;2023-04-29T04:25:17;11.20;84.60
41220;DHT22;26951;47.338;9.196;2023-04-29T04:28:01;11.20;85.10
41220;DHT22;26951;47.338;9.196;2023-04-29T04:30:45;11.20;85.00
41220;DHT22;26951;47.338;9.196;2023-04-29T04:33:31;11.20;84.60
41220;DHT22;26951;47.338;9.196;2023-04-29T04:36:15;11.10;83.50
41220;DHT22;26951;47.338;9.196;2023-04-29T04:38:59;11.10;83.40
41220;DHT22;26951;47.338;9.196;2023-04-29T04:41:43;11.10;83.60
41220;DHT22;26951;47.338;9.196;2023-04-29T04:44:28;11.00;84.20
41220;DHT22;26951;47.338;9.196;2023-04-29T04:47:12;11.00;84.70
41220;DHT22;26951;47.338;9.196;2023-04-29T04:49:56;10.90;84.30
41220;DHT22;26951;47.338;9.196;2023-04-29T04:52:40;10.90;83.70
41220;DHT22;26951;47.338;9.196;2023-04-29T04:55:25;11.00;83.90
41220;DHT22;26951;47.338;9.196;2023-04-29T04:58:09;10.90;83.60
41220;DHT22;26951;47.338;9.196;2023-04-29T05:00:53;10.90;83.00
41220;DHT22;26951;47.338;9.196;2023-04-29T05:03:37;10.90;82.30
41220;DHT22;26951;47.338;9.196;2023-04-29T05:06:21;10.90;81.90
41220;DHT22;26951;47.338;9.196;2023-04-29T05:09:05;10.80;82.80
41220;DHT22;26951;47.338;9.196;2023-04-29T05:11:49;10.80;83.80
41220;DHT22;26951;47.338;9.196;2023-04-29T05:14:34;10.80;84.70
41220;DHT22;26951;47.338;9.196;2023-04-29T05:17:18;10.80;85.20
41220;DHT22;26951;47.338;9.196;2023-04-29T05:20:02;10.80;85.40
41220;DHT22;26951;47.338;9.196;2023-04-29T05:22:46;10.80;86.30
41220;DHT22;26951;47.338;9.196;2023-04-29T05:25:30;10.80;87.20
41220;DHT22;26951;47.338;9.196;2023-04-29T05:28:14;10.90;87.90
41220;DHT22;26951;47.338;9.196;2023-04-29T05:30:58;10.90;88.70
41220;DHT22;26951;47.338;9.196;2023-04-29T05:33:43;11.00;89.40
41220;DHT22;26951;47.338;9.196;2023-04-29T05:36:27;11.10;90.10
41220;DHT22;26951;47.338;9.196;2023-04-29T05:39:11;11.20;90.30
41220;DHT22;26951;47.338;9.196;2023-04-29T05:41:55;11.20;90.60
41220;DHT22;26951;47.338;9.196;2023-04-29T05:44:39;11.30;90.70
41220;DHT22;26951;47.338;9.196;2023-04-29T05:47:24;11.40;90.20
41220;DHT22;26951;47.338;9.196;2023-04-29T05:50:08;11.40;90.60
41220;DHT22;26951;47.338;9.196;2023-04-29T05:52:51;11.50;91.10
41220;DHT22;26951;47.338;9.196;2023-04-29T05:55:38;11.60;92.00
41220;DHT22;26951;47.338;9.196;2023-04-29T05:58:23;11.80;93.20
41220;DHT22;26951;47.338;9.196;2023-04-29T06:01:08;12.00;94.70
41220;DHT22;26951;47.338;9.196;2023-04-29T06:03:53;12.20;95.40
41220;DHT22;26951;47.338;9.196;2023-04-29T06:06:37;12.50;96.30
41220;DHT22;26951;47.338;9.196;2023-04-29T06:09:22;12.70;96.70
41220;DHT22;26951;47.338;9.196;2023-04-29T06:12:09;13.00;97.30
41220;DHT22;26951;47.338;9.196;2023-04-29T06:14:53;13.30;97.80
41220;DHT22;26951;47.338;9.196;2023-04-29T06:17:38;13.60;98.30
41220;DHT22;26951;47.338;9.196;2023-04-29T06:20:23;13.90;98.40
41220;DHT22;26951;47.338;9.196;2023-04-29T06:23:07;14.10;98.40
41220;DHT22;26951;47.338;9.196;2023-04-29T06:25:51;14.50;98.30
41220;DHT22;26951;47.338;9.196;2023-04-29T06:28:36;14.80;97.70
41220;DHT22;26951;47.338;9.196;2023-04-29T06:31:20;15.10;95.30
41220;DHT22;26951;47.338;9.196;2023-04-29T06:34:05;15.60;96.10
41220;DHT22;26951;47.338;9.196;2023-04-29T06:36:48;16.00;95.60
41220;DHT22;26951;47.338;9.196;2023-04-29T06:39:33;16.30;91.60
41220;DHT22;26951;47.338;9.196;2023-04-29T06:42:17;16.70;91.60
41220;DHT22;26951;47.338;9.196;2023-04-29T06:45:01;17.00;82.70
41220;DHT22;26951;47.338;9.196;2023-04-29T06:47:46;17.40;81.10
41220;DHT22;26951;47.338;9.196;2023-04-29T06:50:30;17.70;75.30
41220;DHT22;26951;47.338;9.196;2023-04-29T06:53:14;17.90;69.00
41220;DHT22;26951;47.338;9.196;2023-04-29T06:55:58;18.20;65.50
41220;DHT22;26951;47.338;9.196;2023-04-29T06:58:42;18.40;62.60
41220;DHT22;26951;47.338;9.196;2023-04-29T07:01:26;18.60;61.00
41220;DHT22;26951;47.338;9.196;2023-04-29T07:04:10;18.70;60.50
41220;DHT22;26951;47.338;9.196;2023-04-29T07:06:55;18.80;62.10
41220;DHT22;26951;47.338;9.196;2023-04-29T07:09:39;19.00;60.40
41220;DHT22;26951;47.338;9.196;2023-04-29T07:12:23;19.30;60.10
41220;DHT22;26951;47.338;9.196;2023-04-29T07:15:08;19.40;56.80
41220;DHT22;26951;47.338;9.196;2023-04-29T07:17:52;19.60;56.60
41220;DHT22;26951;47.338;9.196;2023-04-29T07:20:36;19.80;54.00
41220;DHT22;26951;47.338;9.196;2023-04-29T07:23:21;19.90;55.80
41220;DHT22;26951;47.338;9.196;2023-04-29T07:26:12;19.90;53.50
41220;DHT22;26951;47.338;9.196;2023-04-29T07:28:56;20.10;52.90
41220;DHT22;26951;47.338;9.196;2023-04-29T07:31:41;20.20;54.40
41220;DHT22;26951;47.338;9.196;2023-04-29T07:34:25;20.30;51.20
41220;DHT22;26951;47.338;9.196;2023-04-29T07:37:09;20.30;51.10
41220;DHT22;26951;47.338;9.196;2023-04-29T07:39:53;20.40;51.40
41220;DHT22;26951;47.338;9.196;2023-04-29T07:42:37;20.50;51.90
41220;DHT22;26951;47.338;9.196;2023-04-29T07:45:21;20.60;53.40
41220;DHT22;26951;47.338;9.196;2023-04-29T07:48:05;20.70;50.10
41220;DHT22;26951;47.338;9.196;2023-04-29T07:50:49;20.80;53.00
41220;DHT22;26951;47.338;9.196;2023-04-29T07:53:34;20.90;50.30
41220;DHT22;26951;47.338;9.196;2023-04-29T07:56:18;20.90;48.40
41220;DHT22;26951;47.338;9.196;2023-04-29T07:59:03;20.80;49.10
41220;DHT22;26951;47.338;9.196;2023-04-29T08:01:47;20.80;48.70
41220;DHT22;26951;47.338;9.196;2023-04-29T08:04:31;20.90;49.10
41220;DHT22;26951;47.338;9.196;2023-04-29T08:07:15;20.90;48.60
41220;DHT22;26951;47.338;9.196;2023-04-29T08:09:59;21.10;49.10
41220;DHT22;26951;47.338;9.196;2023-04-29T08:12:47;21.20;48.80
41220;DHT22;26951;47.338;9.196;2023-04-29T08:15:32;21.40;45.20
41220;DHT22;26951;47.338;9.196;2023-04-29T08:18:16;21.50;46.70
41220;DHT22;26951;47.338;9.196;2023-04-29T08:21:01;21.50;47.10
41220;DHT22;26951;47.338;9.196;2023-04-29T08:23:46;21.60;48.60
41220;DHT22;26951;47.338;9.196;2023-04-29T08:26:30;21.70;47.80
41220;DHT22;26951;47.338;9.196;2023-04-29T08:29:14;21.80;46.60
41220;DHT22;26951;47.338;9.196;2023-04-29T08:31:59;21.80;46.50
41220;DHT22;26951;47.338;9.196;2023-04-29T08:34:43;21.80;46.00
41220;DHT22;26951;47.338;9.196;2023-04-29T08:37:27;21.80;43.60
41220;DHT22;26951;47.338;9.196;2023-04-29T08:40:12;21.70;44.00
41220;DHT22;26951;47.338;9.196;2023-04-29T08:42:56;21.50;43.10
41220;DHT22;26951;47.338;9.196;2023-04-29T08:45:44;21.30;43.50
41220;DHT22;26951;47.338;9.196;2023-04-29T08:48:31;21.10;43.80
41220;DHT22;26951;47.338;9.196;2023-04-29T08:51:15;21.10;45.40
41220;DHT22;26951;47.338;9.196;2023-04-29T08:54:00;20.90;49.40
41220;DHT22;26951;47.338;9.196;2023-04-29T08:56:45;20.80;53.40
41220;DHT22;26951;47.338;9.196;2023-04-29T08:59:29;20.90;53.00
41220;DHT22;26951;47.338;9.196;2023-04-29T09:02:15;21.10;49.80
41220;DHT22;26951;47.338;9.196;2023-04-29T09:05:07;21.20;46.30
41220;DHT22;26951;47.338;9.196;2023-04-29T09:07:52;21.10;44.40
41220;DHT22;26951;47.338;9.196;2023-04-29T09:10:37;20.90;44.40
41220;DHT22;26951;47.338;9.196;2023-04-29T09:13:29;20.70;43.60
41220;DHT22;26951;47.338;9.196;2023-04-29T09:16:14;20.30;46.20
41220;DHT22;26951;47.338;9.196;2023-04-29T09:18:58;19.90;46.20
41220;DHT22;26951;47.338;9.196;2023-04-29T09:21:53;19.70;47.50
41220;DHT22;26951;47.338;9.196;2023-04-29T09:24:38;19.60;47.00
41220;DHT22;26951;47.338;9.196;2023-04-29T09:27:26;19.40;50.00
41220;DHT22;26951;47.338;9.196;2023-04-29T09:30:12;19.50;53.30
41220;DHT22;26951;47.338;9.196;2023-04-29T09:33:06;19.60;54.40
41220;DHT22;26951;47.338;9.196;2023-04-29T09:35:51;19.80;49.90
41220;DHT22;26951;47.338;9.196;2023-04-29T09:38:35;19.90;50.80
41220;DHT22;26951;47.338;9.196;2023-04-29T09:41:20;19.90;49.50
41220;DHT22;26951;47.338;9.196;2023-04-29T09:44:06;19.90;47.20
41220;DHT22;26951;47.338;9.196;2023-04-29T09:47:07;19.80;46.20
41220;DHT22;26951;47.338;9.196;2023-04-29T09:49:51;19.70;48.80
41220;DHT22;26951;47.338;9.196;2023-04-29T09:52:41;19.70;50.90
41220;DHT22;26951;47.338;9.196;2023-04-29T09:55:25;19.70;46.10
41220;DHT22;26951;47.338;9.196;2023-04-29T09:58:29;19.70;48.30
41220;DHT22;26951;47.338;9.196;2023-04-29T10:01:18;19.60;49.30
41220;DHT22;26951;47.338;9.196;2023-04-29T10:04:05;19.50;49.30
41220;DHT22;26951;47.338;9.196;2023-04-29T10:06:53;19.40;49.30
41220;DHT22;26951;47.338;9.196;2023-04-29T10:09:38;19.40;49.90
41220;DHT22;26951;47.338;9.196;2023-04-29T10:12:24;19.30;48.90
41220;DHT22;26951;47.338;9.196;2023-04-29T10:15:22;19.30;48.70
41220;DHT22;26951;47.338;9.196;2023-04-29T10:18:19;19.20;49.80
41220;DHT22;26951;47.338;9.196;2023-04-29T10:21:07;19.10;48.90
41220;DHT22;26951;47.338;9.196;2023-04-29T10:23:56;19.10;51.90
41220;DHT22;26951;47.338;9.196;2023-04-29T10:26:42;19.00;49.30
41220;DHT22;26951;47.338;9.196;2023-04-29T10:29:29;19.00;48.90
41220;DHT22;26951;47.338;9.196;2023-04-29T10:32:15;18.90;49.30
41220;DHT22;26951;47.338;9.196;2023-04-29T10:35:01;18.80;48.20
41220;DHT22;26951;47.338;9.196;2023-04-29T10:37:47;18.80;49.40
41220;DHT22;26951;47.338;9.196;2023-04-29T10:40:40;18.80;49.90
41220;DHT22;26951;47.338;9.196;2023-04-29T10:43:26;18.90;51.00
41220;DHT22;26951;47.338;9.196;2023-04-29T10:46:21;19.00;47.80
41220;DHT22;26951;47.338;9.196;2023-04-29T10:49:06;19.20;49.50
41220;DHT22;26951;47.338;9.196;2023-04-29T10:51:51;19.40;49.20
41220;DHT22;26951;47.338;9.196;2023-04-29T10:54:35;19.60;49.20
41220;DHT22;26951;47.338;9.196;2023-04-29T10:57:20;19.80;49.80
41220;DHT22;26951;47.338;9.196;2023-04-29T11:00:05;20.00;51.20
41220;DHT22;26951;47.338;9.196;2023-04-29T11:02:50;20.20;43.90
41220;DHT22;26951;47.338;9.196;2023-04-29T11:05:36;20.30;44.10
41220;DHT22;26951;47.338;9.196;2023-04-29T11:08:22;20.20;45.10
41220;DHT22;26951;47.338;9.196;2023-04-29T11:11:07;20.10;44.40
41220;DHT22;26951;47.338;9.196;2023-04-29T11:13:52;20.00;44.20
41220;DHT22;26951;47.338;9.196;2023-04-29T11:16:36;19.80;44.70
41220;DHT22;26951;47.338;9.196;2023-04-29T11:20:05;19.70;44.80
41220;DHT22;26951;47.338;9.196;2023-04-29T11:22:31;19.70;45.30
41220;DHT22;26951;47.338;9.196;2023-04-29T11:25:16;19.60;45.20
41220;DHT22;26951;47.338;9.196;2023-04-29T11:28:02;19.60;45.50
41220;DHT22;26951;47.338;9.196;2023-04-29T11:30:48;19.50;44.90
41220;DHT22;26951;47.338;9.196;2023-04-29T11:33:32;19.40;45.20
41220;DHT22;26951;47.338;9.196;2023-04-29T11:36:17;19.30;45.00
41220;DHT22;26951;47.338;9.196;2023-04-29T11:39:03;19.30;46.00
41220;DHT22;26951;47.338;9.196;2023-04-29T11:41:48;19.30;47.50
41220;DHT22;26951;47.338;9.196;2023-04-29T11:44:36;19.20;46.60
41220;DHT22;26951;47.338;9.196;2023-04-29T11:47:21;19.20;46.80
41220;DHT22;26951;47.338;9.196;2023-04-29T11:50:09;19.10;47.10
41220;DHT22;26951;47.338;9.196;2023-04-29T11:52:53;19.10;47.60
41220;DHT22;26951;47.338;9.196;2023-04-29T11:55:40;19.00;47.50
41220;DHT22;26951;47.338;9.196;2023-04-29T11:58:24;18.90;47.80
41220;DHT22;26951;47.338;9.196;2023-04-29T12:01:08;18.90;47.70
41220;DHT22;26951;47.338;9.196;2023-04-29T12:03:56;18.90;48.40
41220;DHT22;26951;47.338;9.196;2023-04-29T12:06:45;19.10;48.90
41220;DHT22;26951;47.338;9.196;2023-04-29T12:09:41;19.00;47.80
41220;DHT22;26951;47.338;9.196;2023-04-29T12:12:25;19.00;48.80
41220;DHT22;26951;47.338;9.196;2023-04-29T12:15:11;19.10;48.50
41220;DHT22;26951;47.338;9.196;2023-04-29T12:17:55;19.30;48.80
41220;DHT22;26951;47.338;9.196;2023-04-29T12:20:40;19.50;49.80
41220;DHT22;26951;47.338;9.196;2023-04-29T12:23:24;19.70;46.80
41220;DHT22;26951;47.338;9.196;2023-04-29T12:26:12;19.90;42.90
41220;DHT22;26951;47.338;9.196;2023-04-29T12:28:57;20.10;41.40
41220;DHT22;26951;47.338;9.196;2023-04-29T12:31:41;20.30;42.10
41220;DHT22;26951;47.338;9.196;2023-04-29T12:34:30;20.50;39.00
41220;DHT22;26951;47.338;9.196;2023-04-29T12:37:14;20.50;34.10
41220;DHT22;26951;47.338;9.196;2023-04-29T12:39:58;20.60;35.90
41220;DHT22;26951;47.338;9.196;2023-04-29T12:42:42;20.70;35.80
41220;DHT22;26951;47.338;9.196;2023-04-29T12:45:31;20.90;34.50
41220;DHT22;26951;47.338;9.196;2023-04-29T12:48:16;21.10;39.50
41220;DHT22;26951;47.338;9.196;2023-04-29T12:51:00;21.30;39.40
41220;DHT22;26951;47.338;9.196;2023-04-29T12:53:45;21.20;34.30
41220;DHT22;26951;47.338;9.196;2023-04-29T12:56:29;21.00;33.10
41220;DHT22;26951;47.338;9.196;2023-04-29T12:59:14;20.90;35.70
41220;DHT22;26951;47.338;9.196;2023-04-29T13:01:58;20.80;36.00
41220;DHT22;26951;47.338;9.196;2023-04-29T13:04:42;20.80;38.90
41220;DHT22;26951;47.338;9.196;2023-04-29T13:07:26;20.70;36.10
41220;DHT22;26951;47.338;9.196;2023-04-29T13:10:10;20.60;37.20
41220;DHT22;26951;47.338;9.196;2023-04-29T13:12:55;20.60;37.00
41220;DHT22;26951;47.338;9.196;2023-04-29T13:15:40;20.60;40.40
41220;DHT22;26951;47.338;9.196;2023-04-29T13:18:24;20.50;36.90
41220;DHT22;26951;47.338;9.196;2023-04-29T13:21:08;20.30;37.00
41220;DHT22;26951;47.338;9.196;2023-04-29T13:23:53;20.10;37.20
41220;DHT22;26951;47.338;9.196;2023-04-29T13:26:38;19.90;38.60
41220;DHT22;26951;47.338;9.196;2023-04-29T13:29:22;19.80;44.00
41220;DHT22;26951;47.338;9.196;2023-04-29T13:32:06;19.80;40.70
41220;DHT22;26951;47.338;9.196;2023-04-29T13:34:51;19.70;39.80
41220;DHT22;26951;47.338;9.196;2023-04-29T13:37:36;19.70;39.00
41220;DHT22;26951;47.338;9.196;2023-04-29T13:40:20;19.60;38.30
41220;DHT22;26951;47.338;9.196;2023-04-29T13:43:04;19.60;37.20
41220;DHT22;26951;47.338;9.196;2023-04-29T13:45:49;19.60;40.80
41220;DHT22;26951;47.338;9.196;2023-04-29T13:48:34;19.80;41.60
41220;DHT22;26951;47.338;9.196;2023-04-29T13:51:18;20.00;40.80
41220;DHT22;26951;47.338;9.196;2023-04-29T13:54:02;20.10;37.90
41220;DHT22;26951;47.338;9.196;2023-04-29T13:56:48;20.30;38.30
41220;DHT22;26951;47.338;9.196;2023-04-29T13:59:32;20.40;37.90
41220;DHT22;26951;47.338;9.196;2023-04-29T14:02:17;20.50;37.10
41220;DHT22;26951;47.338;9.196;2023-04-29T14:05:01;20.60;37.00
41220;DHT22;26951;47.338;9.196;2023-04-29T14:07:45;20.60;33.80
41220;DHT22;26951;47.338;9.196;2023-04-29T14:10:29;20.70;36.00
41220;DHT22;26951;47.338;9.196;2023-04-29T14:13:14;20.70;36.60
41220;DHT22;26951;47.338;9.196;2023-04-29T14:15:58;20.80;35.30
41220;DHT22;26951;47.338;9.196;2023-04-29T14:18:45;20.90;33.90
41220;DHT22;26951;47.338;9.196;2023-04-29T14:21:29;20.90;34.20
41220;DHT22;26951;47.338;9.196;2023-04-29T14:24:14;20.90;34.80
41220;DHT22;26951;47.338;9.196;2023-04-29T14:26:58;21.00;33.30
41220;DHT22;26951;47.338;9.196;2023-04-29T14:29:44;21.10;34.50
41220;DHT22;26951;47.338;9.196;2023-04-29T14:32:29;21.20;32.90
41220;DHT22;26951;47.338;9.196;2023-04-29T14:35:13;21.20;31.60
41220;DHT22;26951;47.338;9.196;2023-04-29T14:37:58;21.40;31.00
41220;DHT22;26951;47.338;9.196;2023-04-29T14:40:42;21.40;30.90
41220;DHT22;26951;47.338;9.196;2023-04-29T14:43:26;21.40;29.70
41220;DHT22;26951;47.338;9.196;2023-04-29T14:46:11;21.40;31.70
41220;DHT22;26951;47.338;9.196;2023-04-29T14:48:56;21.50;30.20
41220;DHT22;26951;47.338;9.196;2023-04-29T14:51:40;21.40;29.80
41220;DHT22;26951;47.338;9.196;2023-04-29T14:54:24;21.40;30.00
41220;DHT22;26951;47.338;9.196;2023-04-29T14:57:10;21.20;30.00
41220;DHT22;26951;47.338;9.196;2023-04-29T14:59:55;20.90;30.70
41220;DHT22;26951;47.338;9.196;2023-04-29T15:02:39;20.80;30.90
41220;DHT22;26951;47.338;9.196;2023-04-29T15:05:23;20.70;33.80
41220;DHT22;26951;47.338;9.196;2023-04-29T15:08:08;20.80;33.90
41220;DHT22;26951;47.338;9.196;2023-04-29T15:10:53;20.90;34.10
41220;DHT22;26951;47.338;9.196;2023-04-29T15:13:37;20.90;32.10
41220;DHT22;26951;47.338;9.196;2023-04-29T15:16:22;20.90;34.50
41220;DHT22;26951;47.338;9.196;2023-04-29T15:19:06;20.90;36.20
41220;DHT22;26951;47.338;9.196;2023-04-29T15:21:50;20.90;35.30
41220;DHT22;26951;47.338;9.196;2023-04-29T15:24:35;20.90;33.50
41220;DHT22;26951;47.338;9.196;2023-04-29T15:27:19;20.90;32.30
41220;DHT22;26951;47.338;9.196;2023-04-29T15:30:05;20.90;32.00
41220;DHT22;26951;47.338;9.196;2023-04-29T15:32:49;20.80;31.30
41220;DHT22;26951;47.338;9.196;2023-04-29T15:35:33;20.70;29.50
41220;DHT22;26951;47.338;9.196;2023-04-29T15:38:19;20.70;31.60
41220;DHT22;26951;47.338;9.196;2023-04-29T15:41:03;20.70;31.50
41220;DHT22;26951;47.338;9.196;2023-04-29T15:43:48;20.50;31.90
41220;DHT22;26951;47.338;9.196;2023-04-29T15:46:32;20.50;31.90
41220;DHT22;26951;47.338;9.196;2023-04-29T15:49:16;20.40;33.30
41220;DHT22;26951;47.338;9.196;2023-04-29T15:52:00;20.50;33.70
41220;DHT22;26951;47.338;9.196;2023-04-29T15:54:44;20.50;34.40
41220;DHT22;26951;47.338;9.196;2023-04-29T15:57:29;20.50;33.80
41220;DHT22;26951;47.338;9.196;2023-04-29T16:00:13;20.50;36.90
41220;DHT22;26951;47.338;9.196;2023-04-29T16:02:57;20.50;37.60
41220;DHT22;26951;47.338;9.196;2023-04-29T16:05:41;20.40;38.00
41220;DHT22;26951;47.338;9.196;2023-04-29T16:08:26;20.30;38.40
41220;DHT22;26951;47.338;9.196;2023-04-29T16:11:10;20.20;39.30
41220;DHT22;26951;47.338;9.196;2023-04-29T16:13:54;20.10;40.40
41220;DHT22;26951;47.338;9.196;2023-04-29T16:16:38;20.00;40.50
41220;DHT22;26951;47.338;9.196;2023-04-29T16:19:22;20.00;40.90
41220;DHT22;26951;47.338;9.196;2023-04-29T16:22:06;19.80;40.80
41220;DHT22;26951;47.338;9.196;2023-04-29T16:24:50;19.70;41.20
41220;DHT22;26951;47.338;9.196;2023-04-29T16:27:35;19.50;41.40
41220;DHT22;26951;47.338;9.196;2023-04-29T16:30:19;19.40;42.60
41220;DHT22;26951;47.338;9.196;2023-04-29T16:33:03;19.10;41.20
41220;DHT22;26951;47.338;9.196;2023-04-29T16:35:47;19.00;41.40
41220;DHT22;26951;47.338;9.196;2023-04-29T16:38:31;18.90;42.10
41220;DHT22;26951;47.338;9.196;2023-04-29T16:41:16;18.80;42.00
41220;DHT22;26951;47.338;9.196;2023-04-29T16:44:00;18.80;43.40
41220;DHT22;26951;47.338;9.196;2023-04-29T16:46:44;18.60;42.40
41220;DHT22;26951;47.338;9.196;2023-04-29T16:49:29;18.50;43.30
41220;DHT22;26951;47.338;9.196;2023-04-29T16:52:14;18.40;43.00
41220;DHT22;26951;47.338;9.196;2023-04-29T16:54:58;18.30;42.40
41220;DHT22;26951;47.338;9.196;2023-04-29T16:57:44;18.10;41.70
41220;DHT22;26951;47.338;9.196;2023-04-29T17:00:28;18.00;41.40
41220;DHT22;26951;47.338;9.196;2023-04-29T17:03:12;17.90;42.60
41220;DHT22;26951;47.338;9.196;2023-04-29T17:05:57;17.80;41.80
41220;DHT22;26951;47.338;9.196;2023-04-29T17:08:41;17.60;41.10
41220;DHT22;26951;47.338;9.196;2023-04-29T17:11:26;17.40;41.40
41220;DHT22;26951;47.338;9.196;2023-04-29T17:14:10;17.40;41.80
41220;DHT22;26951;47.338;9.196;2023-04-29T17:16:54;17.30;43.30
41220;DHT22;26951;47.338;9.196;2023-04-29T17:19:39;17.30;42.90
41220;DHT22;26951;47.338;9.196;2023-04-29T17:22:23;17.20;43.80
41220;DHT22;26951;47.338;9.196;2023-04-29T17:25:08;17.10;42.80
41220;DHT22;26951;47.338;9.196;2023-04-29T17:27:52;17.00;43.30
41220;DHT22;26951;47.338;9.196;2023-04-29T17:30:36;16.90;43.60
41220;DHT22;26951;47.338;9.196;2023-04-29T17:33:21;16.90;43.90